Time;durP1;ratioP1;P1;durP2;ratioP2;P2;SDS_P1;SDS_P2;PMS_P1;PMS_P2;Temp;Humidity;BMP_temperature;BMP_pressure;BME280_temperature;BME280_humidity;BME280_pressure;Samples;Min_cycle;Max_cycle;Signal;HPM_P1;HPM_P2
2022/06/08 00:02:24;;;;;;;19.50;6.75;;;;;;;15.13;100.00;97053.81;5087184;28;20028;-78
2022/06/08 00:04:49;;;;;;;15.02;6.60;;;;;;;15.09;100.00;97055.06;5080077;28;20045;-77
2022/06/08 00:07:16;;;;;;;12.65;7.28;;;;;;;15.05;100.00;97056.31;5106400;28;20032;-78
2022/06/08 00:09:41;;;;;;;16.65;7.43;;;;;;;14.96;100.00;97041.81;5085226;28;20482;-77
2022/06/08 00:12:08;;;;;;;12.65;6.53;;;;;;;14.99;100.00;97055.00;5079555;28;20023;-77
2022/06/08 00:14:34;;;;;;;9.98;6.13;;;;;;;14.95;100.00;97042.78;5086473;28;20028;-77
2022/06/08 00:17:00;;;;;;;10.93;6.25;;;;;;;14.92;100.00;97044.91;5082448;28;20038;-76
2022/06/08 00:19:26;;;;;;;13.40;6.63;;;;;;;14.83;100.00;97049.25;5096285;28;20019;-76
2022/06/08 00:21:52;;;;;;;13.52;6.13;;;;;;;14.83;100.00;97037.63;5087169;28;20024;-76
2022/06/08 00:24:19;;;;;;;18.40;6.25;;;;;;;14.79;100.00;97030.81;5080312;28;20024;-78
2022/06/08 00:26:45;;;;;;;14.95;6.45;;;;;;;14.76;100.00;97036.47;5089525;28;20023;-78
2022/06/08 00:29:10;;;;;;;9.02;5.78;;;;;;;14.72;100.00;97033.19;5078605;28;20019;-78
2022/06/08 00:31:36;;;;;;;10.35;6.25;;;;;;;14.72;100.00;97037.72;5078527;28;20024;-77
2022/06/08 00:34:02;;;;;;;13.32;6.43;;;;;;;14.65;100.00;97027.47;5086840;28;20064;-76
2022/06/08 00:36:27;;;;;;;6.90;6.20;;;;;;;14.71;100.00;97022.53;5076819;28;20024;-77
2022/06/08 00:38:53;;;;;;;10.07;5.80;;;;;;;14.82;100.00;97034.09;5076785;28;20042;-77
2022/06/08 00:41:44;;;;;;;11.80;6.50;;;;;;;14.76;100.00;97041.84;5093548;28;20027;-76
2022/06/08 00:44:22;;;;;;;12.52;6.10;;;;;;;14.63;100.00;97034.84;5083248;28;20122;-77
2022/06/08 00:46:48;;;;;;;12.55;6.00;;;;;;;14.64;100.00;97038.38;5088824;28;20032;-78
2022/06/08 00:49:23;;;;;;;11.35;6.28;;;;;;;14.64;100.00;97025.75;5085777;28;20393;-77
2022/06/08 00:51:50;;;;;;;19.08;7.13;;;;;;;14.63;100.00;97026.75;5082068;28;20027;-77
2022/06/08 00:54:21;;;;;;;12.43;5.60;;;;;;;14.59;100.00;97028.00;5082472;28;20507;-77
2022/06/08 00:56:51;;;;;;;9.95;5.63;;;;;;;14.42;100.00;97011.59;5081436;28;20475;-77
2022/06/08 00:59:16;;;;;;;10.57;5.60;;;;;;;14.39;100.00;97023.50;5081593;28;20100;-76
2022/06/08 01:01:42;;;;;;;11.32;5.70;;;;;;;14.34;100.00;97014.94;5086388;28;20031;-77
2022/06/08 01:04:19;;;;;;;16.88;5.57;;;;;;;14.33;100.00;97023.16;5082107;28;20060;-77
2022/06/08 01:06:52;;;;;;;8.05;6.53;;;;;;;14.36;100.00;97018.38;5081604;28;20024;-77
2022/06/08 01:09:28;;;;;;;;;;;;;;;14.40;100.00;97025.19;5107648;28;20122;-75
2022/06/08 01:11:56;;;;;;;9.88;5.63;;;;;;;14.45;100.00;97028.34;5071026;28;20399;-78
2022/06/08 01:14:21;;;;;;;9.13;5.75;;;;;;;14.36;100.00;97013.00;5082119;28;20023;-78
2022/06/08 01:16:52;;;;;;;7.22;5.72;;;;;;;14.32;100.00;97014.19;5081604;28;20020;-77
2022/06/08 01:19:18;;;;;;;9.07;6.05;;;;;;;14.34;100.00;97014.94;5064769;28;20500;-77
2022/06/08 01:21:45;;;;;;;8.98;6.18;;;;;;;14.29;100.00;97014.47;5077558;28;20131;-77
2022/06/08 01:24:11;;;;;;;12.05;6.53;;;;;;;14.32;100.00;97022.28;5085848;28;20042;-77
2022/06/08 01:26:44;;;;;;;7.50;5.85;;;;;;;14.31;100.00;97015.16;5073453;28;20112;-78
2022/06/08 01:29:35;;;;;;;7.72;6.13;;;;;;;14.33;100.00;97013.25;5092134;28;20060;-78
2022/06/08 01:32:13;;;;;;;11.20;6.00;;;;;;;14.43;100.00;97015.97;5075715;28;20474;-78
2022/06/08 01:34:55;;;;;;;12.00;6.05;;;;;;;14.36;100.00;97013.00;5083627;28;20051;-78
2022/06/08 01:37:59;;;;;;;12.50;5.88;;;;;;;14.35;100.00;97011.28;5081090;28;20106;-78
2022/06/08 01:40:43;;;;;;;11.25;6.30;;;;;;;14.30;100.00;97007.25;5005690;28;20034;-78
2022/06/08 01:43:23;;;;;;;10.80;6.38;;;;;;;14.32;100.00;97005.28;5099671;28;20499;-77
2022/06/08 01:45:48;;;;;;;12.73;5.80;;;;;;;14.28;100.00;97004.66;5099307;28;20027;-78
2022/06/08 01:49:03;;;;;;;9.10;5.47;;;;;;;14.20;100.00;96999.09;5098416;28;20035;-78
2022/06/08 01:51:53;;;;;;;9.00;5.78;;;;;;;14.24;100.00;97007.78;5048588;28;20047;-78
2022/06/08 01:54:53;;;;;;;8.43;5.57;;;;;;;14.15;100.00;97011.25;5094649;28;20032;-77
2022/06/08 01:57:30;;;;;;;14.60;5.38;;;;;;;14.09;100.00;97009.91;5103540;28;20020;-77
2022/06/08 02:00:13;;;;;;;8.07;5.20;;;;;;;13.99;100.00;97000.94;5108577;28;20034;-77
2022/06/08 02:03:00;;;;;;;6.88;4.93;;;;;;;14.05;100.00;97005.78;5075223;28;20028;-78
2022/06/08 02:05:40;;;;;;;7.13;4.95;;;;;;;14.03;100.00;97007.72;5092622;28;20024;-78
2022/06/08 02:08:16;;;;;;;9.32;5.47;;;;;;;13.97;100.00;97000.19;5078983;28;20515;-77
2022/06/08 02:10:50;;;;;;;6.68;4.63;;;;;;;13.98;100.00;97007.28;5096705;28;20484;-78
2022/06/08 02:13:22;;;;;;;12.18;5.03;;;;;;;13.95;100.00;96999.47;5095420;28;20541;-77
2022/06/08 02:15:51;;;;;;;7.00;4.97;;;;;;;13.92;100.00;96997.03;5075823;28;20028;-77
2022/06/08 02:18:31;;;;;;;10.63;5.20;;;;;;;13.96;100.00;97003.88;5085344;28;20061;-78
2022/06/08 02:21:02;;;;;;;10.68;5.93;;;;;;;14.04;100.00;97004.06;5075283;28;20031;-77
2022/06/08 02:23:41;;;;;;;11.52;7.10;;;;;;;14.06;100.00;97005.66;5098071;28;20020;-78
2022/06/08 02:26:15;;;;;;;15.00;7.47;;;;;;;14.08;100.00;96995.63;5095573;28;20024;-79
2022/06/08 02:28:45;;;;;;;13.00;6.00;;;;;;;13.96;100.00;97003.88;5073227;28;20026;-78
2022/06/08 02:31:19;;;;;;;19.70;5.68;;;;;;;13.94;100.00;97006.69;5076635;28;20036;-77
2022/06/08 02:36:37;;;;;;;12.90;6.03;;;;;;;13.76;100.00;97002.00;5100508;28;20427;-78
2022/06/08 02:39:08;;;;;;;14.20;6.53;;;;;;;13.72;100.00;96996.00;5084632;28;20384;-76
2022/06/08 02:41:35;;;;;;;22.48;6.18;;;;;;;13.76;100.00;96992.09;5081378;28;20583;-76
2022/06/08 02:44:04;;;;;;;8.77;6.68;;;;;;;13.89;100.00;97002.69;5085031;28;20027;-76
2022/06/08 02:46:41;;;;;;;43.67;7.90;;;;;;;13.84;100.00;96999.53;5103618;28;20024;-76
2022/06/08 02:49:09;;;;;;;12.18;6.57;;;;;;;13.82;100.00;96996.97;5085591;28;20411;-76
2022/06/08 02:51:35;;;;;;;12.82;7.00;;;;;;;13.90;100.00;97001.69;5091662;28;20788;-76
2022/06/08 02:54:05;;;;;;;15.90;7.88;;;;;;;13.96;100.00;97007.44;5081919;28;20030;-76
2022/06/08 02:56:33;;;;;;;16.95;6.68;;;;;;;13.98;100.00;97008.13;5086550;28;20062;-77
2022/06/08 02:59:06;;;;;;;9.70;6.63;;;;;;;13.94;100.00;97006.69;5104611;28;20465;-78
2022/06/08 03:02:09;;;;;;;15.48;6.97;;;;;;;14.01;100.00;97007.03;5077548;28;20019;-78
2022/06/08 03:04:46;;;;;;;;;;;;;;;14.00;100.00;97002.63;5109364;28;20076;-78
2022/06/08 03:07:13;;;;;;;;;;;;;;;13.99;100.00;97004.47;5102401;28;19998;-79
2022/06/08 03:09:39;;;;;;;;;;;;;;;13.99;100.00;97009.00;5080640;28;19923;-78
2022/06/08 03:12:07;;;;;;;;;;;;;;;14.00;100.00;97010.69;5086498;28;19911;-78
2022/06/08 03:14:32;;;;;;;;;;;;;;;14.02;100.00;97012.28;5088341;28;20263;-78
2022/06/08 03:17:03;;;;;;;;;;;;;;;14.10;100.00;97017.00;5084926;28;20002;-78
2022/06/08 03:19:29;;;;;;;;;;;;;;;14.10;100.00;97023.25;5086148;28;19918;-78
2022/06/08 03:21:55;;;;;;;;;;;;;;;14.19;100.00;97016.22;5080464;28;19912;-78
2022/06/08 03:24:21;;;;;;;;;;;;;;;14.26;100.00;97027.31;5100920;28;19912;-77
2022/06/08 03:26:48;;;;;;;;;;;;;;;14.28;100.00;97019.97;5086762;28;20353;-76
2022/06/08 03:29:13;;;;;;;;;;;;;;;14.31;100.00;97025.06;5102689;28;19942;-76
2022/06/08 03:31:39;;;;;;;;;;;;;;;14.29;100.00;97040.50;5103528;28;20302;-77
2022/06/08 03:34:04;;;;;;;;;;;;;;;14.36;100.00;97028.28;5083550;28;19916;-76
2022/06/08 03:36:30;;;;;;;;;;;;;;;14.43;100.00;97035.69;5082063;28;19918;-77
2022/06/08 03:38:56;;;;;;;;;;;;;;;14.34;100.00;97031.09;5082741;28;19942;-75
2022/06/08 03:41:21;;;;;;;;;;;;;;;14.39;100.00;97034.25;5086310;28;20329;-76
2022/06/08 03:43:47;;;;;;;;;;;;;;;14.39;100.00;97036.09;5079822;28;19904;-76
2022/06/08 03:46:12;;;;;;;;;;;;;;;14.42;100.00;97039.38;5084319;28;20319;-77
2022/06/08 03:48:38;;;;;;;;;;;;;;;14.41;100.00;97044.88;5095655;28;20019;-77
2022/06/08 03:51:05;;;;;;;;;;;;;;;14.43;100.00;97038.38;5099464;28;19912;-77
2022/06/08 03:53:36;;;;;;;;;;;;;;;14.33;100.00;97032.09;5101278;28;19915;-78
2022/06/08 03:56:02;;;;;;;;;;;;;;;14.25;100.00;97034.53;5109653;28;19912;-76
2022/06/08 03:58:28;;;;;;;;;;;;;;;14.28;100.00;97038.78;5093971;28;19911;-77
2022/06/08 04:00:53;;;;;;;;;;;;;;;14.34;100.00;97043.69;5098024;28;19923;-76
2022/06/08 04:03:18;;;;;;;;;;;;;;;14.39;100.00;97045.03;5088018;28;19911;-81
2022/06/08 04:05:44;;;;;;;;;;;;;;;14.47;100.00;97045.22;5075672;28;20383;-76
2022/06/08 04:08:09;;;;;;;;;;;;;;;14.55;100.00;97049.94;5100116;28;19915;-76
2022/06/08 04:10:35;;;;;;;;;;;;;;;14.57;100.00;97048.81;5076995;28;19912;-75
2022/06/08 04:13:00;;;;;;;;;;;;;;;14.72;100.00;97051.16;5089794;28;19916;-77
2022/06/08 04:15:44;;;;;;;;;;;;;;;14.86;100.00;97053.53;5090281;28;19967;-77
2022/06/08 04:18:14;;;;;;;;;;;;;;;14.91;100.00;97045.91;5091155;28;19918;-76
2022/06/08 04:20:39;;;;;;;;;;;;;;;14.93;100.00;97043.91;5095458;28;19921;-76
2022/06/08 04:23:05;;;;;;;;;;;;;;;15.02;100.00;97049.34;5086796;28;19947;-77
2022/06/08 04:25:30;;;;;;;;;;;;;;;15.06;100.00;97052.63;5094658;28;19912;-77
2022/06/08 04:27:56;;;;;;;;;;;;;;;15.16;100.00;97042.75;5088033;28;19989;-77
2022/06/08 04:30:21;;;;;;;;;;;;;;;15.10;100.00;97040.63;5082199;28;19912;-77
2022/06/08 04:32:47;;;;;;;;;;;;;;;15.17;100.00;97044.44;5074929;28;19919;-81
2022/06/08 04:35:13;;;;;;;;;;;;;;;15.22;100.00;97053.00;5081648;28;19915;-75
2022/06/08 04:37:39;;;;;;;;;;;;;;;15.33;100.00;97049.34;5105038;28;20389;-76
2022/06/08 04:40:06;;;;;;;;;;;;;;;15.48;100.00;97048.00;5083890;28;19912;-75
2022/06/08 04:42:32;;;;;;;;;;;;;;;15.50;100.00;97043.34;5081413;28;19919;-75
2022/06/08 04:44:57;;;;;;;;;;;;;;;15.66;100.00;97044.50;5080019;28;19911;-76
2022/06/08 04:47:22;;;;;;;;;;;;;;;15.97;100.00;97041.69;5084642;28;20363;-76
2022/06/08 04:49:48;;;;;;;;;;;;;;;16.80;100.00;97045.53;5103264;28;19915;-75
2022/06/08 04:52:13;;;;;;;;;;;;;;;18.48;100.00;97043.34;5085688;28;19963;-75
2022/06/08 04:54:39;;;;;;;;;;;;;;;19.09;99.44;97046.91;5089863;28;19914;-75
2022/06/08 04:57:04;;;;;;;;;;;;;;;20.02;89.68;97049.56;5093161;28;19908;-75
2022/06/08 04:59:30;;;;;;;;;;;;;;;21.75;80.46;97051.84;5102731;28;19908;-75
2022/06/08 05:01:55;;;;;;;;;;;;;;;22.95;69.98;97046.69;5089516;28;19980;-74
2022/06/08 05:04:20;;;;;;;;;;;;;;;24.02;63.92;97042.66;5090411;28;19908;-75
2022/06/08 05:06:46;;;;;;;;;;;;;;;24.71;60.20;97036.53;5100897;28;19962;-74
2022/06/08 05:09:12;;;;;;;;;;;;;;;26.10;55.43;97022.81;5092322;28;19919;-75
2022/06/08 05:11:37;;;;;;;;;;;;;;;26.89;52.15;97020.31;5082300;28;19908;-75
2022/06/08 05:14:02;;;;;;;;;;;;;;;26.77;50.96;97024.69;5081994;28;19912;-75
2022/06/08 05:16:28;;;;;;;;;;;;;;;26.96;49.82;97023.91;5090385;28;19908;-75
2022/06/08 05:18:53;;;;;;;;;;;;;;;27.77;48.19;97021.75;5107511;28;19911;-75
2022/06/08 05:21:19;;;;;;;;;;;;;;;27.79;47.78;97019.63;5083477;28;20397;-75
2022/06/08 05:23:45;;;;;;;;;;;;;;;28.33;47.52;97017.31;5098951;28;19922;-75
2022/06/08 05:26:12;;;;;;;;;;;;;;;29.11;45.70;97015.16;5083846;28;19912;-76
2022/06/08 05:28:37;;;;;;;;;;;;;;;29.12;44.98;97011.34;5080631;28;19976;-75
2022/06/08 05:31:03;;;;;;;;;;;;;;;29.65;44.54;97017.25;5083676;28;20383;-74
2022/06/08 05:33:28;;;;;;;;;;;;;;;28.96;44.88;97017.38;5097295;28;19908;-75
2022/06/08 05:35:54;;;;;;;;;;;;;;;28.02;46.67;97019.97;5110611;28;19912;-75
2022/06/08 05:38:20;;;;;;;;;;;;;;;29.03;45.40;97026.44;5085184;28;20414;-75
2022/06/08 05:40:45;;;;;;;;;;;;;;;29.77;44.35;97025.59;5093500;28;20291;-76
2022/06/08 05:43:11;;;;;;;;;;;;;;;30.13;43.39;97022.88;5106756;28;19922;-75
2022/06/08 05:45:38;;;;;;;;;;;;;;;29.64;43.21;97020.22;5090518;28;19912;-76
2022/06/08 05:48:04;;;;;;;;;;;;;;;29.18;43.79;97032.47;5098967;28;19916;-76
2022/06/08 05:50:30;;;;;;;;;;;;;;;28.94;44.84;97027.78;5074594;28;19915;-76
2022/06/08 05:52:55;;;;;;;;;;;;;;;30.17;42.31;97021.34;5098524;28;20288;-75
2022/06/08 05:55:21;;;;;;;;;;;;;;;30.09;42.09;97021.63;5075006;28;19912;-75
2022/06/08 05:57:47;;;;;;;;;;;;;;;30.26;41.67;97014.44;5100235;28;19907;-76
2022/06/08 06:00:16;;;;;;;;;;;;;;;30.44;41.06;97008.91;5081332;28;19912;-76
2022/06/08 06:02:42;;;;;;;;;;;;;;;31.09;39.61;97012.66;5074654;28;19908;-76
2022/06/08 06:05:08;;;;;;;;;;;;;;;30.54;40.05;97000.94;5092966;28;19968;-75
2022/06/08 06:07:33;;;;;;;;;;;;;;;31.08;39.54;97007.34;5082178;28;19970;-76
2022/06/08 06:10:02;;;;;;;;;;;;;;;31.07;38.96;96997.41;5077173;28;19935;-75
2022/06/08 06:12:28;;;;;;;;;;;;;;;29.93;41.61;97014.00;5097358;28;19990;-75
2022/06/08 06:14:53;;;;;;;;;;;;;;;30.87;40.23;97003.19;5109718;28;19908;-75
2022/06/08 06:17:19;;;;;;;;;;;;;;;30.05;40.86;97010.25;5104139;28;19912;-75
2022/06/08 06:19:44;;;;;;;;;;;;;;;31.85;38.65;97002.59;5110904;28;19907;-75
2022/06/08 06:22:10;;;;;;;;;;;;;;;33.15;36.11;96992.56;5102868;28;19934;-75
2022/06/08 06:24:35;;;;;;;;;;;;;;;34.40;34.06;96983.63;5085901;28;19919;-75
2022/06/08 06:27:01;;;;;;;;;;;;;;;33.05;35.17;96981.25;5086739;28;19916;-76
2022/06/08 06:29:26;;;;;;;;;;;;;;;33.71;34.99;96981.31;5084046;28;19965;-75
2022/06/08 06:31:53;;;;;;;;;;;;;;;32.50;36.52;96984.66;5102569;28;19915;-75
2022/06/08 06:34:19;;;;;;;;;;;;;;;33.18;35.88;96992.91;5110519;28;20002;-75
2022/06/08 06:36:45;;;;;;;;;;;;;;;31.64;36.99;96984.69;5084669;28;19916;-76
2022/06/08 06:39:10;;;;;;;;;;;;;;;32.54;35.96;96985.84;5077792;28;19954;-76
2022/06/08 06:41:36;;;;;;;;;;;;;;;33.18;35.42;96986.53;5091128;28;20308;-76
2022/06/08 06:44:01;;;;;;;;;;;;;;;32.93;35.75;96983.25;5104524;28;19912;-74
2022/06/08 06:46:27;;;;;;;;;;;;;;;33.19;35.84;96983.47;5084943;28;19923;-74
2022/06/08 06:48:52;;;;;;;;;;;;;;;33.98;35.05;96980.56;5101623;28;19912;-75
2022/06/08 06:51:18;;;;;;;;;;;;;;;34.24;34.30;96982.63;5079592;28;20002;-74
2022/06/08 06:53:43;;;;;;;;;;;;;;;34.06;33.88;96971.78;5105584;28;19912;-74
2022/06/08 06:56:08;;;;;;;;;;;;;;;34.44;33.49;96968.13;5078067;28;20294;-76
2022/06/08 06:58:35;;;;;;;;;;;;;;;34.24;33.90;96958.44;5102141;28;19916;-74
2022/06/08 07:01:00;;;;;;;;;;;;;;;34.32;32.05;96957.16;5093556;28;19911;-75
2022/06/08 07:03:26;;;;;;;;;;;;;;;33.77;33.38;96962.78;5088206;28;19912;-74
2022/06/08 07:05:51;;;;;;;;;;;;;;;34.75;32.47;96965.47;5105219;28;19955;-75
2022/06/08 07:08:16;;;;;;;;;;;;;;;35.28;31.44;96959.03;5079572;28;19923;-74
2022/06/08 07:10:43;;;;;;;;;;;;;;;35.52;31.06;96961.44;5082389;28;19946;-73
2022/06/08 07:13:09;;;;;;;;;;;;;;;35.64;30.56;96950.97;5084828;28;19912;-73
2022/06/08 07:15:34;;;;;;;;;;;;;;;36.57;29.33;96944.50;5093407;28;19919;-74
2022/06/08 07:17:59;;;;;;;;;;;;;;;37.24;29.25;96954.66;5076276;28;19918;-74
2022/06/08 07:20:25;;;;;;;;;;;;;;;35.19;30.43;96946.69;5112793;28;19949;-75
2022/06/08 07:22:51;;;;;;;;;;;;;;;35.63;30.59;96958.47;5098317;28;19915;-75
2022/06/08 07:25:17;;;;;;;;;;;;;;;34.82;31.24;96954.94;5086291;28;19919;-75
2022/06/08 07:27:43;;;;;;;;;;;;;;;35.21;30.42;96955.63;5096445;28;20022;-75
2022/06/08 07:30:09;;;;;;;;;;;;;;;35.64;30.42;96956.53;5087677;28;19952;-76
2022/06/08 07:32:35;;;;;;;;;;;;;;;35.76;30.21;96952.44;5096431;28;20322;-74
2022/06/08 07:35:02;;;;;;;;;;;;;;;35.00;31.29;96950.13;5095868;28;20456;-75
2022/06/08 07:37:27;;;;;;;;;;;;;;;34.39;32.38;96954.19;5104497;28;20370;-74
2022/06/08 07:39:53;;;;;;;;;;;;;;;36.25;30.48;96938.22;5113314;28;19912;-74
2022/06/08 07:42:18;;;;;;;;;;;;;;;34.66;32.08;96949.50;5087515;28;19912;-76
2022/06/08 07:44:44;;;;;;;;;;;;;;;33.21;34.90;96959.13;5087477;28;20054;-74
2022/06/08 07:47:09;;;;;;;;;;;;;;;34.57;33.54;96949.13;5104576;28;20344;-75
2022/06/08 07:49:39;;;;;;;;;;;;;;;35.60;31.51;96945.09;5083459;28;19916;-76
2022/06/08 07:52:05;;;;;;;;;;;;;;;34.39;32.58;96948.63;5084369;28;19943;-75
2022/06/08 07:54:30;;;;;;;;;;;;;;;33.11;34.53;96955.34;5103535;28;20352;-75
2022/06/08 07:56:56;;;;;;;;;;;;;;;33.91;33.20;96949.38;5095870;28;19965;-76
2022/06/08 07:59:23;;;;;;;;;;;;;;;34.27;33.49;96960.69;5087050;28;19919;-75
2022/06/08 08:01:49;;;;;;;;;;;;;;;34.89;33.00;96953.91;5090349;28;20403;-76
2022/06/08 08:04:14;;;;;;;;;;;;;;;35.93;31.36;96955.06;5083850;28;19951;-76
2022/06/08 08:06:40;;;;;;;;;;;;;;;37.19;30.05;96960.25;5087190;28;19949;-76
2022/06/08 08:09:05;;;;;;;;;;;;;;;36.81;30.51;96956.81;5112729;28;20294;-76
2022/06/08 08:11:30;;;;;;;;;;;;;;;35.23;32.66;96950.63;5078295;28;19912;-75
2022/06/08 08:13:56;;;;;;;;;;;;;;;36.39;30.98;96948.56;5098334;28;19904;-75
2022/06/08 08:16:21;;;;;;;;;;;;;;;36.18;30.42;96941.25;5091870;28;20002;-76
2022/06/08 08:18:48;;;;;;;;;;;;;;;35.90;30.05;96945.25;5104924;28;19916;-75
2022/06/08 08:21:13;;;;;;;;;;;;;;;35.22;30.49;96939.78;5095329;28;19935;-75
2022/06/08 08:23:38;;;;;;;;;;;;;;;35.34;30.63;96944.06;5083435;28;20303;-75
2022/06/08 08:26:04;;;;;;;;;;;;;;;36.73;29.31;96943.41;5100724;28;19915;-76
2022/06/08 08:28:29;;;;;;;;;;;;;;;36.80;29.25;96938.41;5091126;28;19965;-76
2022/06/08 08:30:54;;;;;;;;;;;;;;;37.93;28.38;96944.56;5083290;28;19919;-75
2022/06/08 08:33:20;;;;;;;;;;;;;;;36.87;29.78;96938.97;5074910;28;19912;-75
2022/06/08 08:35:45;;;;;;;;;;;;;;;36.41;30.28;96942.75;5099606;28;19916;-76
2022/06/08 08:38:11;;;;;;;;;;;;;;;36.31;30.50;96942.69;5074757;28;19912;-77
2022/06/08 08:40:45;;;;;;;;;;;;;;;37.65;28.53;96936.81;5076977;28;20049;-77
2022/06/08 08:43:14;;;;;;;;;;;;;;;36.23;29.44;96932.09;5096461;28;20014;-76
2022/06/08 08:45:42;;;;;;;;;;;;;;;37.45;28.98;96931.22;5085429;28;20390;-76
2022/06/08 08:48:09;;;;;;;;;;;;;;;38.01;28.29;96928.34;5111791;28;19916;-75
2022/06/08 08:50:40;;;;;;;;;;;;;;;38.35;27.63;96923.78;5075618;28;19920;-74
2022/06/08 08:53:12;;;;;;;;;;;;;;;37.33;28.46;96919.50;5106013;28;19908;-77
2022/06/08 08:55:56;;;;;;;;;;;;;;;37.44;29.07;96921.13;5102808;28;20366;-76
2022/06/08 08:58:24;;;;;;;;;;;;;;;38.47;27.18;96913.91;5095944;28;19915;-76
2022/06/08 09:00:51;;;;;;;;;;;;;;;38.55;26.98;96911.66;5094694;28;19919;-76
2022/06/08 09:03:26;;;;;;;;;;;;;;;38.81;26.59;96900.03;5111451;28;20345;-75
2022/06/08 09:05:52;;;;;;;;;;;;;;;39.69;25.35;96894.25;5116676;27;19923;-75
2022/06/08 09:08:19;;;;;;;;;;;;;;;39.88;24.27;96883.94;5099288;28;20014;-77
2022/06/08 09:10:44;;;;;;;;;;;;;;;39.25;25.74;96897.19;5090517;28;20092;-76
2022/06/08 09:13:11;;;;;;;;;;;;;;;37.98;25.67;96885.91;5079985;28;19912;-76
2022/06/08 09:15:47;;;;;;;;;;;;;;;38.81;25.60;96882.41;5076014;28;19916;-76
2022/06/08 09:18:20;;;;;;;;;;;;;;;39.19;25.52;96886.31;5089067;28;20362;-75
2022/06/08 09:20:45;;;;;;;;;;;;;;;39.46;25.34;96884.66;5086028;28;19958;-75
2022/06/08 09:23:22;;;;;;;;;;;;;;;39.49;25.29;96880.44;5094222;28;19916;-76
2022/06/08 09:25:59;;;;;;;;;;;;;;;39.57;25.36;96874.19;5108604;28;19907;-76
2022/06/08 09:28:26;;;;;;;;;;;;;;;39.59;25.01;96873.91;5098336;28;19975;-76
2022/06/08 09:30:53;;;;;;;;;;;;;;;38.02;25.67;96857.38;5085358;28;19927;-76
2022/06/08 09:33:32;;;;;;;;;;;;;;;39.17;25.38;96861.38;5096092;28;19959;-76
2022/06/08 09:36:05;;;;;;;;;;;;;;;39.83;24.88;96857.97;5065558;28;19920;-76
2022/06/08 09:38:32;;;;;;;;;;;;;;;40.04;24.87;96853.78;5082206;28;19911;-76
2022/06/08 09:40:58;;;;;;;;;;;;;;;38.23;26.93;96856.16;5093225;28;20446;-77
2022/06/08 09:43:26;;;;;;;;;;;;;;;38.52;26.56;96851.50;5103898;28;20023;-75
2022/06/08 09:45:56;;;;;;;;;;;;;;;36.86;28.33;96864.78;5092658;28;19916;-76
2022/06/08 09:51:27;;;;;;;;;;;;;;;36.66;29.07;96847.22;5090343;28;20317;-75
2022/06/08 09:53:59;;;;;;;;;;;;;;;38.16;26.62;96839.69;5101880;28;20409;-76
2022/06/08 09:56:42;;;;;;;;;;;;;;;38.59;26.09;96829.66;5102032;28;19959;-76
2022/06/08 09:59:18;;;;;;;;;;;;;;;37.63;26.64;96837.66;5103406;28;19912;-76
2022/06/08 10:01:46;;;;;;;;;;;;;;;37.75;26.95;96827.84;5083989;28;19912;-76
2022/06/08 10:04:14;;;;;;;;;;;;;;;38.60;27.19;96838.91;5095043;28;19912;-76
2022/06/08 10:06:42;;;;;;;;;;;;;;;39.48;25.66;96828.34;5101636;28;19916;-76
2022/06/08 10:09:28;;;;;;;;;;;;;;;38.67;26.43;96820.66;5081580;28;19912;-76
2022/06/08 10:11:54;;;;;;;;;;;;;;;39.26;26.89;96831.66;5044009;28;19954;-76
2022/06/08 10:14:26;;;;;;;;;;;;;;;37.93;27.56;96820.81;5101972;28;20010;-76
2022/06/08 10:16:55;;;;;;;;;;;;;;;38.83;27.11;96822.22;5101859;28;19955;-74
2022/06/08 10:19:31;;;;;;;;;;;;;;;40.03;25.53;96824.91;5093577;28;19911;-74
2022/06/08 10:21:57;;;;;;;;;;;;;;;40.14;25.49;96816.41;5076232;28;20393;-75
2022/06/08 10:24:26;;;;;;;;;;;;;;;39.14;26.53;96810.75;5087770;28;19907;-75
2022/06/08 10:27:12;;;;;;;;;;;;;;;39.32;25.71;96819.28;5072824;28;19916;-75
2022/06/08 10:29:42;;;;;;;;;;;;;;;39.07;27.05;96815.88;5089081;28;19912;-76
2022/06/08 10:32:25;;;;;;;;;;;;;;;40.11;25.75;96815.03;5098148;28;19908;-75
2022/06/08 10:34:56;;;;;;;;;;;;;;;39.29;25.63;96807.81;5081938;28;19916;-76
2022/06/08 10:37:34;;;;;;;;;;;;;;;39.10;26.07;96798.50;5105006;28;19912;-75
2022/06/08 10:40:00;;;;;;;;;;;;;;;38.88;26.97;96801.78;5081049;28;19912;-76
2022/06/08 10:42:42;;;;;;;;;;;;;;;38.57;27.41;96801.16;5098329;28;19916;-76
2022/06/08 10:45:23;;;;;;;;;;;;;;;38.57;27.50;96795.56;5082990;28;19942;-76
2022/06/08 10:48:05;;;;;;;;;;;;;;;38.57;27.22;96794.72;5099323;28;20389;-76
2022/06/08 10:50:32;;;;;;;;;;;;;;;39.18;27.20;96795.03;5072946;28;19916;-76
2022/06/08 10:54:52;;;;;;;;;;;;;;;39.04;27.41;96795.72;5091509;28;19969;-76
2022/06/08 10:55:43;;;;;;;;;;;;;;;39.00;27.68;96786.28;5102241;28;20340;-76
2022/06/08 10:58:10;;;;;;;;;;;;;;;39.24;27.08;96788.28;5096046;28;19998;-76
2022/06/08 11:00:41;;;;;;;;;;;;;;;39.65;26.35;96775.50;5096607;28;20353;-76
2022/06/08 11:03:19;;;;;;;;;;;;;;;39.69;25.91;96773.78;5096650;28;20404;-76
2022/06/08 11:05:46;;;;;;;;;;;;;;;38.60;26.69;96767.03;5089194;28;20575;-76
2022/06/08 11:08:15;;;;;;;;;;;;;;;39.17;26.21;96780.22;5104622;28;19949;-76
2022/06/08 11:10:53;;;;;;;;;;;;;;;40.43;25.78;96772.19;5113722;28;19951;-76
2022/06/08 11:13:22;;;;;;;;;;;;;;;39.71;26.00;96760.34;5113688;28;19911;-75
2022/06/08 11:15:54;;;;;;;;;;;;;;;39.88;25.16;96757.84;5114573;27;19912;-76
2022/06/08 11:18:19;;;;;;;;;;;;;;;39.45;25.72;96756.13;5118674;27;19919;-77
2022/06/08 11:20:50;;;;;;;;;;;;;;;38.34;27.15;96762.72;5108968;28;19916;-76
2022/06/08 11:23:18;;;;;;;;;;;;;;;39.16;26.33;96770.16;5093573;28;20386;-76
2022/06/08 11:25:47;;;;;;;;;;;;;;;39.41;25.67;96769.09;5108481;28;19911;-76
2022/06/08 11:28:24;;;;;;;;;;;;;;;39.84;25.64;96765.19;5102295;28;19998;-77
2022/06/08 11:30:50;;;;;;;;;;;;;;;40.80;24.73;96766.56;5110425;28;20310;-76
2022/06/08 11:33:17;;;;;;;;;;;;;;;40.63;24.80;96755.09;5101838;28;19942;-77
2022/06/08 11:35:50;;;;;;;;;;;;;;;41.06;24.13;96756.59;5090431;28;19922;-76
2022/06/08 11:38:34;;;;;;;;;;;;;;;40.41;24.58;96752.06;5102052;28;19916;-76
2022/06/08 11:41:18;;;;;;;;;;;;;;;39.01;26.38;96748.75;5092411;28;19912;-77
2022/06/08 11:43:43;;;;;;;;;;;;;;;36.84;28.50;96751.84;5092574;28;19933;-75
2022/06/08 11:46:15;;;;;;;;;;;;;;;34.45;31.76;96753.09;5110500;28;19911;-75
2022/06/08 11:48:47;;;;;;;;;;;;;;;32.68;34.54;96764.75;5087459;28;19916;-75
2022/06/08 11:51:15;;;;;;;;;;;;;;;32.74;35.84;96778.44;5086209;28;20355;-84
2022/06/08 11:53:42;;;;;;;;;;;;;;;34.18;33.14;96759.50;5087445;28;19919;-84
2022/06/08 11:56:17;;;;;;;;;;;;;;;35.34;31.82;96751.22;5093962;28;20379;-83
2022/06/08 11:58:47;;;;;;;;;;;;;;;36.48;30.32;96751.00;5101249;28;19919;-84
2022/06/08 12:01:20;;;;;;;;;;;;;;;36.52;30.75;96742.94;5085436;28;20357;-83
2022/06/08 12:03:46;;;;;;;;;;;;;;;38.09;29.08;96740.53;5111490;28;20427;-82
2022/06/08 12:06:15;;;;;;;;;;;;;;;38.48;28.32;96735.81;5092542;28;19912;-82
2022/06/08 12:08:40;;;;;;;;;;;;;;;38.49;27.99;96737.47;5101457;28;19912;-83
2022/06/08 12:11:06;;;;;;;;;;;;;;;38.43;27.79;96731.06;5094952;28;19934;-83
2022/06/08 12:13:31;;;;;;;;;;;;;;;39.53;26.51;96728.28;5086090;28;20371;-84
2022/06/08 12:15:57;;;;;;;;;;;;;;;39.37;26.60;96726.84;5087921;28;19912;-84
2022/06/08 12:18:29;;;;;;;;;;;;;;;38.98;27.66;96728.91;5092552;28;19915;-83
2022/06/08 12:21:06;;;;;;;;;;;;;;;37.14;29.82;96726.69;5120587;27;20367;-84
2022/06/08 12:23:36;;;;;;;;;;;;;;;35.47;31.90;96734.00;5092549;28;19915;-84
2022/06/08 12:26:01;;;;;;;;;;;;;;;34.15;33.16;96729.50;5112813;28;19912;-82
2022/06/08 12:28:26;;;;;;;;;;;;;;;33.64;34.23;96736.44;5081598;28;20011;-84
2022/06/08 12:30:53;;;;;;;;;;;;;;;33.60;34.65;96745.53;5100110;28;19912;-83
2022/06/08 12:33:19;;;;;;;;;;;;;;;32.91;35.64;96747.09;5091862;28;19915;-83
2022/06/08 12:35:56;;;;;;;;;;;;;;;32.05;37.14;96743.75;5094356;28;19920;-83
2022/06/08 12:38:29;;;;;;;;;;;;;;;31.91;37.57;96750.66;5091595;28;19912;-84
2022/06/08 12:41:01;;;;;;;;;;;;;;;31.78;36.90;96739.88;5091937;28;19912;-84